Time;durP1;ratioP1;P1;durP2;ratioP2;P2;SDS_P1;SDS_P2;PMS_P1;PMS_P2;Temp;Humidity;BMP_temperature;BMP_pressure;BME280_temperature;BME280_humidity;BME280_pressure;Samples;Min_cycle;Max_cycle;Signal;HPM_P1;HPM_P2
2022/11/14 00:01:27;;;;;;;9.37;8.57;;;7.50;1.00;;;;;;4889263;29;20541;-84
2022/11/14 00:03:55;;;;;;;9.60;8.80;;;7.40;24.60;;;;;;4889550;29;20466;-83
2022/11/14 00:06:23;;;;;;;10.70;9.73;;;7.30;58.50;;;;;;4893362;29;20494;-82
2022/11/14 00:08:52;;;;;;;10.13;9.23;;;7.40;19.30;;;;;;4889422;29;20566;-82
2022/11/14 00:11:21;;;;;;;8.60;7.70;;;7.20;72.80;;;;;;4887529;29;20762;-83
2022/11/14 00:13:49;;;;;;;10.47;9.50;;;7.40;13.20;;;;;;4885009;29;20995;-82
2022/11/14 00:16:17;;;;;;;10.80;9.80;;;7.20;99.90;;;;;;4889198;29;20465;-83
2022/11/14 00:18:45;;;;;;;10.13;9.17;;;7.30;99.90;;;;;;4884977;29;20910;-83
2022/11/14 00:21:13;;;;;;;10.10;9.17;;;7.40;20.70;;;;;;4884701;29;20505;-85
2022/11/14 00:23:41;;;;;;;10.13;9.13;;;7.50;8.50;;;;;;4886144;29;20499;-81
2022/11/14 00:26:10;;;;;;;11.57;10.40;;;7.50;1.00;;;;;;4886095;29;20461;-80
2022/11/14 00:28:39;;;;;;;9.63;8.63;;;7.40;1.00;;;;;;4884716;29;20547;-78
2022/11/14 00:31:07;;;;;;;10.80;9.90;;;7.30;35.50;;;;;;4881403;29;20467;-77
2022/11/14 00:33:35;;;;;;;10.27;9.37;;;7.30;60.90;;;;;;4885578;29;20470;-79
2022/11/14 00:36:03;;;;;;;11.27;10.23;;;7.20;98.70;;;;;;4878947;29;20524;-79
2022/11/14 00:38:31;;;;;;;9.83;8.93;;;7.20;99.90;;;;;;4884262;29;20465;-79
2022/11/14 00:40:59;;;;;;;10.17;9.27;;;7.20;99.90;;;;;;4887186;29;20480;-80
2022/11/14 00:43:29;;;;;;;9.23;8.33;;;7.10;32.60;;;;;;4886827;29;20465;-81
2022/11/14 00:45:57;;;;;;;10.13;9.13;;;7.00;99.90;;;;;;4900636;29;20469;-80
2022/11/14 00:48:25;;;;;;;10.27;9.30;;;7.10;99.90;;;;;;4881022;29;20552;-79
2022/11/14 00:50:53;;;;;;;10.27;9.10;;;7.20;99.90;;;;;;4883195;29;20470;-79
2022/11/14 00:53:22;;;;;;;9.17;8.30;;;7.20;45.30;;;;;;4881212;29;20515;-78
2022/11/14 00:55:50;;;;;;;9.90;9.00;;;7.10;99.90;;;;;;4878770;29;20819;-79
2022/11/14 00:58:18;;;;;;;11.27;10.20;;;7.10;99.90;;;;;;4879043;29;20469;-80
2022/11/14 01:00:47;;;;;;;8.80;8.00;;;7.20;94.20;;;;;;4882029;29;20574;-79
2022/11/14 01:03:15;;;;;;;9.60;8.70;;;7.30;60.30;;;;;;4882957;29;20830;-79
2022/11/14 01:05:45;;;;;;;8.97;8.20;;;7.30;47.20;;;;;;4881631;29;20809;-79
2022/11/14 01:08:14;;;;;;;9.20;8.40;;;7.40;27.30;;;;;;4882738;29;20498;-80
2022/11/14 01:10:43;;;;;;;9.83;8.93;;;7.40;1.00;;;;;;4883052;29;20604;-78
2022/11/14 01:13:12;;;;;;;9.20;8.40;;;7.40;1.00;;;;;;4896395;29;20474;-80
2022/11/14 01:15:41;;;;;;;10.30;9.30;;;7.50;1.00;;;;;;4884398;29;20569;-79
2022/11/14 01:18:14;;;;;;;10.50;9.50;;;7.40;1.00;;;;;;4880641;29;20565;-79
2022/11/14 01:20:44;;;;;;;9.60;8.70;;;7.30;39.90;;;;;;4884145;29;20458;-78
2022/11/14 01:23:15;;;;;;;9.13;8.43;;;7.30;21.80;;;;;;4885616;29;20521;-80
2022/11/14 01:25:43;;;;;;;9.10;8.30;;;7.20;28.50;;;;;;4888323;29;20461;-81
2022/11/14 01:28:13;;;;;;;9.40;8.60;;;7.20;70.10;;;;;;4885173;29;20561;-79
2022/11/14 01:30:41;;;;;;;9.10;8.40;;;7.30;99.90;;;;;;4886479;29;20467;-80
2022/11/14 01:33:11;;;;;;;10.80;9.70;;;7.30;65.40;;;;;;4884321;29;20483;-80
2022/11/14 01:35:39;;;;;;;10.40;9.33;;;7.40;33.80;;;;;;4885384;29;20559;-80
2022/11/14 01:38:07;;;;;;;9.23;8.43;;;7.30;62.20;;;;;;4882674;29;20467;-79
2022/11/14 01:40:41;;;;;;;9.70;8.70;;;7.20;99.90;;;;;;4889563;29;20473;-79
2022/11/14 01:43:30;;;;;;;9.67;8.77;;;7.20;99.90;;;;;;4888444;29;20458;-80
2022/11/14 01:46:01;;;;;;;9.63;8.83;;;7.10;99.90;;;;;;4888919;29;20473;-81
2022/11/14 01:48:38;;;;;;;10.80;9.63;;;7.10;99.90;;;;;;4887001;29;22215;-80
2022/11/14 01:51:17;;;;;;;12.50;10.13;;;7.00;99.90;;;;;;4887276;29;20468;-79
2022/11/14 01:53:47;;;;;;;8.90;8.10;;;7.20;99.90;;;;;;4889619;29;20465;-79
2022/11/14 01:56:19;;;;;;;10.30;9.43;;;7.10;99.90;;;;;;4884691;29;21170;-80
2022/11/14 01:58:51;;;;;;;8.57;7.97;;;7.10;99.90;;;;;;4893995;29;20582;-82
2022/11/14 02:01:19;;;;;;;9.87;8.97;;;7.20;99.90;;;;;;4887586;29;21112;-81
2022/11/14 02:03:53;;;;;;;8.40;7.60;;;7.20;99.90;;;;;;4890434;29;20459;-81
2022/11/14 02:06:23;;;;;;;8.87;8.07;;;7.10;99.90;;;;;;4894857;29;20465;-82
2022/11/14 02:08:52;;;;;;;10.10;9.20;;;7.10;99.90;;;;;;4886788;29;20844;-82
2022/11/14 02:11:20;;;;;;;9.43;8.57;;;7.00;1.00;;;;;;4890069;29;20555;-81
2022/11/14 02:13:48;;;;;;;10.37;9.37;;;7.00;1.00;;;;;;4896809;29;20472;-80
2022/11/14 02:16:17;;;;;;;10.43;9.17;;;7.10;1.00;;;;;;4891699;29;21466;-80
2022/11/14 02:18:45;;;;;;;9.70;8.90;;;7.20;99.90;;;;;;4891585;29;20471;-81
2022/11/14 02:21:14;;;;;;;10.87;9.97;;;7.20;99.90;;;;;;4886940;29;21296;-85
2022/11/14 02:23:43;;;;;;;11.70;9.53;;;7.00;99.90;;;;;;4889039;29;20788;-80
2022/11/14 02:26:11;;;;;;;10.60;9.50;;;7.10;1.00;;;;;;4894007;29;20462;-81
2022/11/14 02:28:39;;;;;;;14.03;10.00;;;7.00;1.00;;;;;;4886838;29;20497;-80
2022/11/14 02:31:07;;;;;;;18.73;10.60;;;7.00;1.00;;;;;;4891987;29;20537;-80
2022/11/14 02:33:35;;;;;;;13.63;9.53;;;7.00;1.00;;;;;;4887403;29;21362;-79
2022/11/14 02:36:04;;;;;;;11.73;9.70;;;6.90;1.00;;;;;;4887582;29;20481;-78
2022/11/14 02:38:33;;;;;;;18.13;10.20;;;6.90;1.00;;;;;;4886718;29;20460;-79
2022/11/14 02:41:02;;;;;;;13.27;9.90;;;6.80;62.70;;;;;;4885499;29;20455;-83
2022/11/14 02:43:30;;;;;;;12.13;9.20;;;6.60;99.90;;;;;;4903069;29;20494;-81
2022/11/14 02:45:58;;;;;;;9.20;8.30;;;6.50;1.00;;;;;;4885898;29;20573;-80
2022/11/14 02:48:32;;;;;;;9.70;8.73;;;6.40;99.90;;;;;;4893570;29;20461;-79
2022/11/14 02:51:00;;;;;;;11.80;9.80;;;6.60;14.30;;;;;;4888143;29;20464;-79
2022/11/14 02:53:29;;;;;;;10.87;8.77;;;6.60;1.00;;;;;;4887643;29;20481;-80
2022/11/14 02:55:58;;;;;;;12.13;9.10;;;6.60;99.90;;;;;;4894475;29;20483;-80
2022/11/14 02:58:26;;;;;;;12.63;9.27;;;6.60;99.90;;;;;;4886439;29;20548;-80
2022/11/14 03:00:55;;;;;;;9.73;8.83;;;6.50;1.00;;;;;;4885231;29;20465;-79
2022/11/14 03:03:43;;;;;;;20.43;9.90;;;6.70;99.90;;;;;;4890008;29;21157;-79
2022/11/14 03:06:11;;;;;;;32.50;9.50;;;6.60;99.90;;;;;;4884803;29;20506;-79
2022/11/14 03:08:39;;;;;;;11.83;8.27;;;6.50;2.40;;;;;;4889369;29;20536;-79
2022/11/14 03:11:10;;;;;;;10.60;9.60;;;6.40;99.90;;;;;;4890554;29;20540;-80
2022/11/14 03:13:38;;;;;;;41.93;10.97;;;6.50;99.90;;;;;;4892221;29;20462;-80
2022/11/14 03:16:07;;;;;;;10.97;8.53;;;6.40;99.90;;;;;;4890746;29;20476;-80
2022/11/14 03:18:35;;;;;;;20.37;8.80;;;6.30;1.00;;;;;;4885354;29;20533;-80
2022/11/14 03:21:07;;;;;;;12.73;9.23;;;6.20;99.90;;;;;;4890752;29;20472;-79
2022/11/14 03:23:36;;;;;;;41.80;9.40;;;6.50;1.00;;;;;;4884713;29;20468;-79
2022/11/14 03:26:07;;;;;;;17.37;8.43;;;6.50;99.90;;;;;;4887154;29;21023;-79
2022/11/14 03:28:37;;;;;;;38.93;10.00;;;6.40;99.90;;;;;;4888869;29;20465;-79
2022/11/14 03:31:05;;;;;;;12.63;8.97;;;6.40;1.00;;;;;;4891059;29;20563;-80
2022/11/14 03:33:33;;;;;;;20.80;9.30;;;6.20;1.00;;;;;;4886152;29;20472;-80
2022/11/14 03:36:02;;;;;;;19.57;8.80;;;6.30;1.00;;;;;;4888019;29;21012;-80
2022/11/14 03:38:31;;;;;;;25.17;9.57;;;6.30;1.00;;;;;;4888250;29;20463;-79
2022/11/14 03:40:59;;;;;;;19.00;10.00;;;6.20;1.00;;;;;;4890730;29;20527;-79
2022/11/14 03:43:31;;;;;;;28.93;10.50;;;6.30;95.90;;;;;;4888986;29;20522;-83
2022/11/14 03:46:01;;;;;;;26.20;9.37;;;6.40;99.90;;;;;;4886561;29;20482;-79
2022/11/14 03:48:30;;;;;;;11.60;9.37;;;6.40;99.90;;;;;;4886734;29;20458;-79
2022/11/14 03:50:59;;;;;;;9.73;8.70;;;6.30;99.90;;;;;;4883381;29;20476;-79
2022/11/14 03:53:27;;;;;;;13.20;9.70;;;6.20;99.90;;;;;;4888396;29;20468;-80
2022/11/14 03:55:55;;;;;;;14.40;9.30;;;6.00;99.90;;;;;;4885247;29;20510;-78
2022/11/14 03:58:23;;;;;;;11.40;9.57;;;6.20;1.00;;;;;;4882682;29;20456;-78
2022/11/14 04:00:52;;;;;;;10.67;9.67;;;6.30;1.00;;;;;;4888328;29;20463;-79
2022/11/14 04:03:21;;;;;;;11.33;10.23;;;6.30;99.90;;;;;;4887817;29;20579;-79
2022/11/14 04:05:50;;;;;;;14.50;9.90;;;6.30;99.90;;;;;;4883778;29;20467;-79
2022/11/14 04:08:18;;;;;;;9.73;8.70;;;6.30;74.70;;;;;;4887660;29;20561;-81
2022/11/14 04:10:47;;;;;;;11.03;9.20;;;6.30;1.00;;;;;;4894247;29;20523;-80
2022/11/14 04:13:15;;;;;;;12.20;9.60;;;6.40;1.00;;;;;;4889842;29;20564;-81
2022/11/14 04:15:43;;;;;;;9.87;8.90;;;6.40;1.00;;;;;;4888525;29;20499;-80
2022/11/14 04:18:12;;;;;;;16.37;9.20;;;6.40;99.90;;;;;;4884894;29;20534;-80
2022/11/14 04:20:41;;;;;;;18.47;9.50;;;6.30;1.00;;;;;;4886887;29;20539;-81
2022/11/14 04:23:09;;;;;;;9.60;8.57;;;6.40;1.00;;;;;;4882451;29;20559;-80
2022/11/14 04:25:37;;;;;;;10.93;8.97;;;6.30;1.00;;;;;;4889929;29;20539;-82
2022/11/14 04:28:05;;;;;;;9.70;8.20;;;6.30;1.00;;;;;;4890379;29;20501;-81
2022/11/14 04:30:33;;;;;;;10.53;9.57;;;6.20;57.50;;;;;;4893856;29;20560;-82
2022/11/14 04:33:02;;;;;;;12.20;8.20;;;6.30;1.00;;;;;;4885888;29;20461;-80
2022/11/14 04:35:30;;;;;;;10.50;8.80;;;6.00;99.90;;;;;;4897212;29;20456;-81
2022/11/14 04:37:59;;;;;;;8.83;8.10;;;6.20;1.00;;;;;;4886677;29;20487;-81
2022/11/14 04:40:27;;;;;;;8.80;7.97;;;6.30;51.50;;;;;;4889728;29;20473;-81
2022/11/14 04:42:55;;;;;;;9.50;8.60;;;6.20;1.00;;;;;;4888335;29;20457;-83
2022/11/14 04:45:24;;;;;;;8.47;7.67;;;6.20;1.00;;;;;;4890246;29;20568;-82
2022/11/14 04:47:52;;;;;;;8.70;8.00;;;6.20;99.90;;;;;;4890559;29;20466;-81
2022/11/14 04:50:20;;;;;;;7.90;7.10;;;6.20;99.90;;;;;;4892221;29;20485;-81
2022/11/14 04:52:52;;;;;;;8.57;7.77;;;6.10;99.90;;;;;;4892841;29;20464;-81
2022/11/14 04:55:21;;;;;;;7.67;7.03;;;6.20;99.90;;;;;;4910687;29;21468;-82
2022/11/14 04:57:53;;;;;;;8.60;7.83;;;6.10;99.90;;;;;;4886083;29;20475;-80
2022/11/14 05:00:23;;;;;;;7.20;6.60;;;6.20;2.60;;;;;;4897037;29;20551;-80
2022/11/14 05:02:51;;;;;;;8.07;7.37;;;6.00;94.40;;;;;;4884900;29;20496;-80
2022/11/14 05:05:19;;;;;;;7.80;7.20;;;6.20;1.00;;;;;;4888502;29;20465;-80
2022/11/14 05:07:47;;;;;;;8.47;7.77;;;6.10;1.00;;;;;;4878541;29;20492;-80
2022/11/14 05:10:15;;;;;;;7.73;7.07;;;6.10;1.00;;;;;;4886286;29;20495;-82
2022/11/14 05:12:45;;;;;;;8.70;8.00;;;6.10;1.00;;;;;;4885050;29;20512;-80
2022/11/14 05:15:13;;;;;;;8.13;7.43;;;6.20;1.00;;;;;;4883147;29;20495;-80
2022/11/14 05:17:41;;;;;;;8.13;7.37;;;6.20;1.00;;;;;;4886975;29;20483;-79
2022/11/14 05:20:10;;;;;;;7.40;6.90;;;6.30;1.00;;;;;;4889168;29;20562;-80
2022/11/14 05:22:38;;;;;;;6.93;6.40;;;6.20;1.00;;;;;;4888613;29;20553;-80
2022/11/14 05:25:08;;;;;;;7.70;7.03;;;6.10;1.00;;;;;;4881206;29;20559;-79
2022/11/14 05:27:36;;;;;;;7.37;6.77;;;6.10;1.00;;;;;;4881492;29;20516;-80
2022/11/14 05:30:06;;;;;;;7.50;7.00;;;6.20;99.90;;;;;;4883162;29;21000;-82
2022/11/14 05:32:35;;;;;;;7.17;6.67;;;6.20;99.90;;;;;;4885876;29;20465;-81
2022/11/14 05:35:03;;;;;;;7.10;6.50;;;6.20;99.90;;;;;;4885613;29;20506;-77
2022/11/14 05:37:31;;;;;;;7.53;7.03;;;6.10;1.00;;;;;;4880154;29;20479;-81
2022/11/14 05:39:59;;;;;;;8.17;7.47;;;6.10;1.00;;;;;;4883413;29;20578;-80
2022/11/14 05:42:27;;;;;;;6.70;6.20;;;6.20;1.00;;;;;;4883138;29;20921;-83
2022/11/14 05:44:55;;;;;;;8.93;8.13;;;6.10;1.00;;;;;;4884931;29;20532;-81
2022/11/14 05:47:26;;;;;;;6.60;6.20;;;6.20;1.00;;;;;;4886272;29;20502;-80
2022/11/14 05:49:54;;;;;;;7.40;6.80;;;6.30;1.00;;;;;;4884963;29;21012;-81
2022/11/14 05:52:22;;;;;;;7.43;6.90;;;6.40;99.90;;;;;;4884545;29;20560;-80
2022/11/14 05:54:50;;;;;;;7.93;7.30;;;6.30;99.90;;;;;;4894703;29;20522;-79
2022/11/14 05:57:19;;;;;;;7.40;6.90;;;6.30;1.00;;;;;;4885807;29;20482;-80
2022/11/14 05:59:47;;;;;;;7.20;6.70;;;6.30;1.00;;;;;;4886973;29;20477;-81
2022/11/14 06:02:15;;;;;;;7.17;6.67;;;6.50;99.90;;;;;;4888358;29;20471;-80
2022/11/14 06:04:45;;;;;;;7.80;7.20;;;6.30;99.90;;;;;;4882518;29;20499;-81
2022/11/14 06:07:13;;;;;;;7.97;7.37;;;6.30;1.00;;;;;;4888031;29;20473;-81
2022/11/14 06:09:47;;;;;;;7.07;6.57;;;6.40;1.00;;;;;;4887074;29;21157;-83
2022/11/14 06:12:15;;;;;;;6.73;6.23;;;6.40;1.00;;;;;;4882831;29;20452;-81
2022/11/14 06:14:43;;;;;;;6.77;6.33;;;6.60;99.90;;;;;;4885637;29;20456;-82
2022/11/14 06:17:12;;;;;;;7.60;7.00;;;6.50;99.90;;;;;;4893577;29;20464;-82
2022/11/14 06:19:40;;;;;;;7.67;7.17;;;6.70;99.90;;;;;;4892867;29;20487;-81
2022/11/14 06:22:09;;;;;;;7.37;6.77;;;6.80;99.90;;;;;;4890651;29;20465;-83
2022/11/14 06:24:37;;;;;;;7.73;7.17;;;6.80;99.90;;;;;;4890483;29;20552;-82
2022/11/14 06:27:05;;;;;;;7.83;7.20;;;6.60;99.90;;;;;;4888230;29;20554;-82
2022/11/14 06:29:33;;;;;;;7.80;7.20;;;6.50;1.00;;;;;;4889032;29;21005;-81
2022/11/14 06:32:02;;;;;;;7.40;6.80;;;6.50;1.00;;;;;;4889738;29;20468;-79
2022/11/14 06:34:30;;;;;;;7.53;7.03;;;6.50;1.00;;;;;;4886591;29;20485;-81
2022/11/14 06:36:58;;;;;;;7.70;7.00;;;6.50;1.00;;;;;;4891120;29;20559;-80
2022/11/14 06:39:28;;;;;;;8.90;8.20;;;6.50;99.40;;;;;;4888117;29;20577;-81
2022/11/14 06:41:56;;;;;;;8.70;7.80;;;6.70;8.90;;;;;;4888656;29;20468;-80
2022/11/14 06:44:24;;;;;;;8.07;7.50;;;6.70;15.40;;;;;;4888386;29;20473;-80
2022/11/14 06:46:58;;;;;;;7.53;7.03;;;6.70;1.00;;;;;;4883124;29;20462;-79
2022/11/14 06:49:26;;;;;;;8.10;7.23;;;6.70;99.90;;;;;;4887147;29;20489;-81
2022/11/14 06:51:54;;;;;;;8.53;7.80;;;6.70;99.90;;;;;;4884756;29;20499;-82
2022/11/14 06:54:23;;;;;;;8.40;7.73;;;6.80;81.50;;;;;;4889621;29;20476;-80
2022/11/14 06:56:52;;;;;;;8.83;8.10;;;6.80;99.90;;;;;;4885898;29;21124;-81
2022/11/14 06:59:20;;;;;;;8.00;7.50;;;6.90;30.20;;;;;;4888107;29;20488;-81
2022/11/14 07:01:49;;;;;;;8.50;7.90;;;7.00;30.10;;;;;;4890793;29;21192;-80
2022/11/14 07:04:17;;;;;;;8.60;7.90;;;7.00;22.90;;;;;;4885207;29;20461;-81
2022/11/14 07:06:45;;;;;;;9.07;8.37;;;7.10;1.00;;;;;;4884664;29;20976;-82
2022/11/14 07:09:14;;;;;;;9.00;8.30;;;7.00;67.80;;;;;;4885392;29;20484;-81
2022/11/14 07:11:44;;;;;;;8.93;8.23;;;7.00;98.70;;;;;;4887058;29;21490;-80
2022/11/14 07:14:14;;;;;;;8.63;8.03;;;7.00;89.40;;;;;;4888346;29;20453;-80
2022/11/14 07:16:42;;;;;;;9.10;8.33;;;6.90;99.90;;;;;;4886532;29;20481;-81
2022/11/14 07:19:11;;;;;;;10.07;9.17;;;6.70;99.90;;;;;;4897785;29;20611;-81
2022/11/14 07:21:40;;;;;;;8.97;8.27;;;6.90;99.90;;;;;;4890449;29;20526;-81
2022/11/14 07:24:08;;;;;;;10.20;9.13;;;6.90;39.50;;;;;;4889282;29;20456;-82
2022/11/14 07:26:36;;;;;;;12.93;9.80;;;6.90;1.00;;;;;;4893844;29;20496;-80
2022/11/14 07:29:04;;;;;;;12.70;10.83;;;6.80;36.10;;;;;;4885750;29;20589;-80
2022/11/14 07:31:34;;;;;;;8.80;8.10;;;7.00;99.90;;;;;;4886233;29;20474;-80
2022/11/14 07:34:04;;;;;;;8.53;7.93;;;7.00;1.00;;;;;;4886022;29;20474;-80
2022/11/14 07:36:33;;;;;;;9.83;9.10;;;7.00;1.00;;;;;;4889245;29;20464;-81
2022/11/14 07:39:01;;;;;;;9.60;8.90;;;7.00;4.60;;;;;;4888609;29;20505;-82
2022/11/14 07:41:29;;;;;;;10.30;9.30;;;7.10;1.00;;;;;;4888411;29;20787;-81
2022/11/14 07:43:57;;;;;;;8.80;8.10;;;7.10;1.00;;;;;;4886467;29;20474;-81
2022/11/14 07:46:25;;;;;;;10.10;9.30;;;7.10;8.70;;;;;;4884767;29;20555;-81
2022/11/14 07:48:55;;;;;;;9.30;8.60;;;7.20;1.00;;;;;;4885430;29;20516;-80
2022/11/14 07:51:23;;;;;;;10.47;9.50;;;7.10;1.00;;;;;;4888071;29;20469;-80
2022/11/14 07:53:52;;;;;;;9.87;9.07;;;7.20;1.00;;;;;;4889506;29;20474;-83
2022/11/14 07:56:21;;;;;;;8.67;7.70;;;7.10;99.90;;;;;;4890064;29;20468;-83
2022/11/14 07:58:49;;;;;;;9.93;9.02;;;7.10;99.90;;;;;;4885586;29;20499;-80
2022/11/14 08:01:17;;;;;;;9.67;8.97;;;7.00;99.90;;;;;;4893611;29;20204;-81
2022/11/14 08:03:45;;;;;;;9.27;8.47;;;7.30;99.90;;;;;;4890137;29;20461;-80
2022/11/14 08:06:16;;;;;;;9.83;8.90;;;7.40;99.90;;;;;;4893666;29;20453;-80
2022/11/14 08:08:45;;;;;;;11.40;8.70;;;7.60;1.00;;;;;;4889626;29;20832;-82
2022/11/14 08:11:13;;;;;;;8.67;7.87;;;7.70;1.00;;;;;;4888123;29;20462;-80
2022/11/14 08:14:01;;;;;;;9.57;8.77;;;7.80;1.00;;;;;;4876470;29;20465;-80
2022/11/14 08:16:29;;;;;;;9.23;8.53;;;7.90;1.00;;;;;;4885207;29;20620;-81
2022/11/14 08:18:57;;;;;;;9.17;8.47;;;8.00;99.90;;;;;;4883706;29;20506;-80
2022/11/14 08:21:27;;;;;;;9.33;8.43;;;7.90;70.30;;;;;;4884274;29;20465;-80
2022/11/14 08:23:55;;;;;;;10.50;9.63;;;7.90;1.00;;;;;;4883402;29;20484;-80
2022/11/14 08:26:24;;;;;;;9.60;8.90;;;8.00;1.00;;;;;;4884142;29;20502;-80
2022/11/14 08:28:57;;;;;;;8.87;8.33;;;8.10;1.00;;;;;;4882096;29;20485;-80
2022/11/14 08:31:25;;;;;;;8.30;7.90;;;8.10;99.90;;;;;;4885424;29;20465;-80
2022/11/14 08:33:54;;;;;;;8.33;7.93;;;8.10;1.00;;;;;;4885760;29;20464;-80
2022/11/14 08:36:22;;;;;;;8.40;8.10;;;8.30;1.00;;;;;;4891598;29;20474;-81
2022/11/14 08:38:52;;;;;;;8.77;8.57;;;8.30;1.00;;;;;;4887966;29;20485;-80
2022/11/14 08:41:27;;;;;;;9.70;9.40;;;8.40;1.00;;;;;;4882169;29;20470;-82
2022/11/14 08:43:56;;;;;;;10.20;9.90;;;8.50;1.00;;;;;;4889738;29;20538;-80
2022/11/14 08:46:24;;;;;;;10.27;9.97;;;8.60;1.00;;;;;;4883749;29;20494;-80
2022/11/14 08:48:52;;;;;;;10.50;10.13;;;8.70;1.00;;;;;;4885682;29;20480;-81
2022/11/14 08:51:20;;;;;;;10.90;10.60;;;8.70;1.00;;;;;;4881744;29;20485;-81
2022/11/14 08:53:50;;;;;;;10.77;10.50;;;8.70;1.00;;;;;;4879065;29;21042;-81
2022/11/14 08:56:19;;;;;;;11.90;11.50;;;8.80;1.00;;;;;;4882103;29;20474;-81
2022/11/14 08:58:48;;;;;;;12.20;11.70;;;8.80;1.00;;;;;;4880947;29;20524;-80
2022/11/14 09:01:16;;;;;;;12.60;12.20;;;8.90;1.00;;;;;;4881041;29;20461;-79
2022/11/14 09:03:44;;;;;;;12.83;12.43;;;8.80;1.00;;;;;;4884905;29;20545;-80
2022/11/14 09:06:12;;;;;;;12.80;12.40;;;8.90;1.00;;;;;;4884666;29;20477;-81
2022/11/14 09:08:40;;;;;;;12.60;12.30;;;8.90;1.00;;;;;;4884352;29;21143;-79
2022/11/14 09:11:08;;;;;;;12.90;12.50;;;8.90;1.00;;;;;;4886375;29;20774;-81
2022/11/14 09:13:40;;;;;;;13.80;13.30;;;8.90;9.90;;;;;;4884087;29;20493;-82
2022/11/14 09:16:09;;;;;;;13.90;13.20;;;9.00;1.00;;;;;;4888642;29;21282;-79
2022/11/14 09:18:37;;;;;;;13.73;13.33;;;9.00;1.00;;;;;;4897901;29;20471;-80
2022/11/14 09:21:07;;;;;;;13.63;12.87;;;9.00;1.00;;;;;;4882121;29;20517;-80
2022/11/14 09:23:36;;;;;;;14.93;14.23;;;9.00;1.00;;;;;;4883815;29;20478;-80
2022/11/14 09:26:04;;;;;;;13.43;12.93;;;9.10;1.00;;;;;;4892223;29;20842;-79
2022/11/14 09:28:33;;;;;;;13.20;12.90;;;9.10;1.00;;;;;;4890412;29;20511;-80
2022/11/14 09:31:04;;;;;;;13.30;12.90;;;9.20;1.00;;;;;;4889139;29;20970;-81
2022/11/14 09:33:32;;;;;;;14.30;13.80;;;9.20;1.00;;;;;;4886848;29;20489;-81
2022/11/14 09:36:01;;;;;;;14.07;13.57;;;9.30;1.00;;;;;;4889586;29;20475;-81
2022/11/14 09:38:30;;;;;;;14.47;13.97;;;9.30;1.00;;;;;;4894006;29;20495;-80
2022/11/14 09:41:21;;;;;;;13.90;13.30;;;9.30;1.00;;;;;;4889362;29;20494;-81
2022/11/14 09:44:17;;;;;;;13.90;13.30;;;9.40;1.00;;;;;;4888778;29;20464;-80
2022/11/14 09:46:54;;;;;;;14.00;13.50;;;9.40;1.00;;;;;;4888756;29;21028;-79
2022/11/14 09:49:31;;;;;;;14.53;14.13;;;9.40;1.00;;;;;;4887819;29;20485;-80
2022/11/14 09:52:11;;;;;;;14.47;14.00;;;9.30;1.00;;;;;;4883608;29;20554;-82
2022/11/14 09:54:48;;;;;;;14.10;13.60;;;9.40;1.00;;;;;;4889285;29;21053;-81
2022/11/14 09:57:19;;;;;;;14.43;14.03;;;9.40;1.00;;;;;;4886107;29;20463;-78
2022/11/14 09:59:47;;;;;;;14.43;13.93;;;9.50;1.00;;;;;;4880878;29;20526;-79
2022/11/14 10:02:40;;;;;;;14.57;14.00;;;9.40;1.00;;;;;;4884273;29;20465;-80
2022/11/14 10:05:32;;;;;;;14.50;14.00;;;9.40;1.00;;;;;;4881885;29;20465;-80
2022/11/14 10:08:26;;;;;;;14.50;14.10;;;9.50;1.00;;;;;;4887419;29;20461;-81
2022/11/14 10:10:57;;;;;;;14.60;14.20;;;9.70;1.00;;;;;;4878842;29;20459;-80
2022/11/14 10:13:46;;;;;;;16.03;15.53;;;9.90;1.00;;;;;;4883918;29;20474;-80
2022/11/14 10:16:19;;;;;;;16.67;16.17;;;10.70;99.90;;;;;;4887516;29;20463;-80
2022/11/14 10:19:03;;;;;;;15.97;15.57;;;11.20;50.40;;;;;;4888409;29;20511;-81
2022/11/14 10:21:46;;;;;;;16.83;16.33;;;10.90;1.00;;;;;;4884657;29;20463;-79
2022/11/14 10:24:31;;;;;;;15.77;15.37;;;10.40;7.00;;;;;;4883867;29;20506;-79
2022/11/14 10:27:03;;;;;;;15.43;15.03;;;10.20;39.20;;;;;;4884037;29;20534;-80
2022/11/14 10:29:49;;;;;;;15.40;15.00;;;10.20;99.90;;;;;;4881849;29;20484;-81
2022/11/14 10:32:28;;;;;;;14.93;14.40;;;10.10;99.90;;;;;;4886765;29;20494;-79
2022/11/14 10:35:03;;;;;;;14.90;14.50;;;10.10;99.90;;;;;;4882740;29;20466;-83
2022/11/14 10:37:36;;;;;;;15.10;14.70;;;10.10;1.00;;;;;;4880755;29;20978;-80
2022/11/14 10:40:17;;;;;;;15.23;14.70;;;10.10;99.90;;;;;;4889652;29;20522;-80
2022/11/14 10:42:48;;;;;;;16.30;15.87;;;10.40;1.00;;;;;;4889438;29;20545;-83
2022/11/14 10:45:24;;;;;;;16.80;16.40;;;11.10;99.90;;;;;;4885064;29;21187;-81
2022/11/14 10:47:56;;;;;;;17.00;16.50;;;11.10;1.00;;;;;;4887839;29;20565;-81
2022/11/14 10:50:33;;;;;;;16.67;16.27;;;10.90;99.90;;;;;;4885514;29;20931;-81
2022/11/14 10:53:10;;;;;;;16.97;16.47;;;10.70;56.90;;;;;;4884523;29;21494;-81
2022/11/14 10:55:38;;;;;;;16.67;16.20;;;10.60;99.90;;;;;;4885050;29;20462;-80
2022/11/14 10:58:26;;;;;;;16.60;16.10;;;10.60;99.90;;;;;;4882361;29;20465;-80
2022/11/14 11:00:55;;;;;;;15.80;15.40;;;10.60;99.90;;;;;;4877195;29;20483;-79
2022/11/14 11:03:41;;;;;;;14.97;14.57;;;10.60;1.00;;;;;;4888361;29;20601;-80
2022/11/14 11:06:25;;;;;;;14.80;14.50;;;10.50;99.90;;;;;;4886473;29;20467;-82
2022/11/14 11:11:41;;;;;;;15.00;14.70;;;10.70;99.90;;;;;;4882748;29;20446;-81
2022/11/14 11:14:17;;;;;;;15.20;14.80;;;10.60;99.90;;;;;;4881885;29;20538;-80
2022/11/14 11:16:47;;;;;;;14.83;14.53;;;10.50;99.90;;;;;;4881033;29;20459;-80
2022/11/14 11:19:23;;;;;;;15.10;14.70;;;10.50;99.90;;;;;;4877022;29;20479;-80
2022/11/14 11:21:53;;;;;;;15.90;15.40;;;10.50;99.90;;;;;;4885193;29;20479;-79
2022/11/14 11:24:32;;;;;;;15.40;15.00;;;10.50;99.90;;;;;;4886706;29;20444;-79
2022/11/14 11:27:14;;;;;;;15.77;15.37;;;10.50;1.00;;;;;;4886085;29;20510;-80
2022/11/14 11:29:42;;;;;;;14.70;14.33;;;10.50;99.90;;;;;;4886662;29;20498;-80
2022/11/14 11:32:10;;;;;;;14.80;14.47;;;10.50;1.00;;;;;;4882769;29;20464;-81
2022/11/14 11:34:39;;;;;;;15.60;15.00;;;10.60;1.00;;;;;;4887215;29;20920;-80
2022/11/14 11:37:18;;;;;;;14.90;14.60;;;10.50;1.00;;;;;;4881661;29;20473;-81
2022/11/14 11:39:51;;;;;;;14.80;14.40;;;10.50;99.90;;;;;;4888932;29;20518;-81
2022/11/14 11:42:25;;;;;;;14.37;14.07;;;10.50;99.90;;;;;;4886086;29;20984;-79
2022/11/14 11:45:17;;;;;;;14.37;14.07;;;10.50;99.90;;;;;;4883757;29;20467;-80
2022/11/14 11:47:53;;;;;;;14.73;14.43;;;10.50;1.00;;;;;;4885910;29;21353;-81
2022/11/14 11:50:23;;;;;;;15.60;15.00;;;10.50;99.90;;;;;;4892017;29;20485;-79
2022/11/14 11:53:03;;;;;;;15.47;14.90;;;10.50;1.00;;;;;;4893689;29;20488;-81
2022/11/14 11:55:34;;;;;;;15.40;14.90;;;10.50;1.00;;;;;;4893720;29;20553;-80
2022/11/14 11:58:06;;;;;;;14.90;14.60;;;10.50;1.00;;;;;;4884615;29;21036;-79
2022/11/14 12:00:35;;;;;;;14.90;14.50;;;10.50;99.90;;;;;;4882834;29;20493;-79
2022/11/14 12:03:05;;;;;;;17.27;15.57;;;10.50;1.00;;;;;;4887863;29;20470;-79
2022/11/14 12:05:43;;;;;;;14.77;14.37;;;10.50;1.00;;;;;;4887422;29;20479;-80
2022/11/14 12:08:19;;;;;;;14.33;13.97;;;10.60;1.00;;;;;;4887099;29;20467;-80
2022/11/14 12:10:50;;;;;;;14.33;14.03;;;10.60;99.90;;;;;;4882431;29;20578;-79
2022/11/14 12:14:01;;;;;;;17.10;16.40;;;10.60;99.90;;;;;;4886130;29;20458;-80
2022/11/14 12:16:56;;;;;;;14.70;14.20;;;10.70;99.90;;;;;;4891565;29;20458;-79
2022/11/14 12:19:55;;;;;;;15.40;14.70;;;10.70;1.00;;;;;;4887632;29;20492;-79
2022/11/14 12:22:46;;;;;;;15.80;15.30;;;10.90;1.00;;;;;;4889160;29;20542;-81
2022/11/14 12:25:46;;;;;;;15.83;15.43;;;11.20;1.00;;;;;;4888159;29;20451;-80
2022/11/14 12:28:35;;;;;;;16.90;16.40;;;11.40;99.90;;;;;;4887196;29;20491;-82
2022/11/14 12:31:06;;;;;;;15.80;15.33;;;11.60;99.90;;;;;;4882650;29;20892;-81
2022/11/14 12:33:36;;;;;;;16.10;15.70;;;11.70;1.00;;;;;;4886695;29;20513;-81
2022/11/14 12:36:09;;;;;;;16.80;16.30;;;11.70;1.00;;;;;;4888157;29;20470;-81
2022/11/14 12:38:44;;;;;;;16.20;15.70;;;11.80;99.90;;;;;;4886592;29;20464;-81
2022/11/14 12:41:22;;;;;;;16.33;15.83;;;11.90;99.90;;;;;;4890030;29;20474;-80
2022/11/14 12:43:51;;;;;;;15.73;15.27;;;11.90;99.90;;;;;;4887103;29;20451;-80
2022/11/14 12:46:19;;;;;;;16.77;16.27;;;12.00;99.90;;;;;;4887128;29;20510;-81
2022/11/14 12:48:48;;;;;;;15.97;15.40;;;12.30;99.90;;;;;;4888005;29;20476;-81
2022/11/14 12:51:51;;;;;;;15.90;15.40;;;12.50;50.00;;;;;;4884864;29;20469;-82
2022/11/14 12:54:45;;;;;;;15.50;15.10;;;12.50;99.90;;;;;;4867092;29;20215;-80
2022/11/14 12:57:46;;;;;;;15.90;15.20;;;12.50;99.90;;;;;;4888516;29;20473;-80
2022/11/14 13:00:12;;;;;;;16.03;15.03;;;12.40;99.90;;;;;;4890711;29;20919;-81
2022/11/14 13:03:27;;;;;;;15.30;14.97;;;12.50;99.90;;;;;;4888668;29;20496;-81
2022/11/14 13:05:59;;;;;;;15.30;14.80;;;12.30;99.90;;;;;;4874729;29;20528;-83
2022/11/14 13:08:57;;;;;;;15.27;14.77;;;12.20;99.90;;;;;;4885030;29;22669;-82
2022/11/14 13:23:50;;;;;;;15.30;14.90;;;12.30;1.00;;;;;;4885415;29;20466;-83
2022/11/14 13:26:53;;;;;;;13.90;13.60;;;12.40;1.00;;;;;;4884630;29;20470;-83
2022/11/14 13:29:49;;;;;;;13.70;13.40;;;12.50;99.90;;;;;;4889170;29;20478;-84